createdAt,value
2023-03-11T00:00:58.850Z,98695.16
2023-03-11T00:03:27.822Z,98704.91
2023-03-11T00:05:56.085Z,98715.19
2023-03-11T00:08:24.088Z,98722.25
2023-03-11T00:10:52.063Z,98721.50
2023-03-11T00:13:19.671Z,98726.75
2023-03-11T00:15:48.584Z,98738.94
2023-03-11T00:18:16.263Z,98738.94
2023-03-11T00:20:43.855Z,98748.47
2023-03-11T00:23:11.949Z,98754.66
2023-03-11T00:25:39.552Z,98748.47
2023-03-11T00:28:07.951Z,98758.25
2023-03-11T00:30:35.658Z,98765.16
2023-03-11T00:33:03.325Z,98766.94
2023-03-11T00:35:31.450Z,98767.88
2023-03-11T00:37:59.178Z,98775.66
2023-03-11T00:40:27.029Z,98775.66
2023-03-11T00:42:54.574Z,98783.69
2023-03-11T00:45:22.656Z,98789.72
2023-03-11T00:47:50.677Z,98794.03
2023-03-11T00:50:19.166Z,98789.59
2023-03-11T00:52:46.835Z,98798.31
2023-03-11T00:55:14.461Z,98797.47
2023-03-11T00:57:42.024Z,98808.91
2023-03-11T01:00:12.321Z,98807.13
2023-03-11T01:02:39.893Z,98808.91
2023-03-11T01:05:07.678Z,98814.16
2023-03-11T01:07:35.713Z,98818.56
2023-03-11T01:10:03.324Z,98823.81
2023-03-11T01:12:31.327Z,98821.06
2023-03-11T01:14:58.912Z,98824.75
2023-03-11T01:17:26.513Z,98832.72
2023-03-11T01:19:54.105Z,98833.75
2023-03-11T01:22:21.734Z,98843.28
2023-03-11T01:24:49.703Z,98841.63
2023-03-11T01:27:17.284Z,98840.75
2023-03-11T01:29:45.078Z,98854.72
2023-03-11T01:32:12.748Z,98845.09
2023-03-11T01:34:40.365Z,98854.72
2023-03-11T01:37:08.302Z,98857.34
2023-03-11T01:39:35.847Z,98858.22
2023-03-11T01:42:03.417Z,98858.28
2023-03-11T01:44:31.067Z,98858.28
2023-03-11T01:47:00.318Z,98861.75
2023-03-11T01:49:28.440Z,98861.75
2023-03-11T01:51:56.490Z,98854.81
2023-03-11T01:54:24.099Z,98854.94
2023-03-11T01:56:51.829Z,98855.75
2023-03-11T01:59:19.975Z,98861.09
2023-03-11T02:01:47.908Z,98861.94
2023-03-11T02:04:15.501Z,98855.00
2023-03-11T02:06:43.146Z,98857.63
2023-03-11T02:09:10.742Z,98862.88
2023-03-11T02:11:38.323Z,98859.53
2023-03-11T02:14:06.742Z,98858.66
2023-03-11T02:16:34.328Z,98867.47
2023-03-11T02:19:01.957Z,98863.06
2023-03-11T02:21:29.548Z,98871.78
2023-03-11T02:23:57.080Z,98871.78
2023-03-11T02:26:24.910Z,98869.25
2023-03-11T02:28:52.516Z,98865.66
2023-03-11T02:31:20.500Z,98870.09
2023-03-11T02:33:48.119Z,98862.44
2023-03-11T02:36:16.171Z,98872.16
2023-03-11T02:38:44.168Z,98874.97
2023-03-11T02:41:11.758Z,98866.34
2023-03-11T02:43:39.606Z,98870.00
2023-03-11T02:46:07.157Z,98874.31
2023-03-11T02:48:34.722Z,98879.63
2023-03-11T02:51:02.680Z,98880.56
2023-03-11T02:53:30.277Z,98885.81
2023-03-11T02:55:57.861Z,98891.81
2023-03-11T02:58:25.449Z,98887.50
2023-03-11T03:00:53.126Z,98886.66
2023-03-11T03:03:21.117Z,98893.59
2023-03-11T03:05:48.850Z,98897.97
2023-03-11T03:08:16.426Z,98904.09
2023-03-11T03:10:43.979Z,98916.25
2023-03-11T03:13:11.534Z,98910.06
2023-03-11T03:15:39.552Z,98917.09
2023-03-11T03:18:07.598Z,98917.19
2023-03-11T03:20:35.445Z,98935.56
2023-03-11T03:23:02.999Z,98929.44
2023-03-11T03:25:30.524Z,98930.19
2023-03-11T03:27:58.508Z,98929.28
2023-03-11T03:30:26.069Z,98930.03
2023-03-11T03:32:53.893Z,98930.97
2023-03-11T03:35:21.525Z,98936.03
2023-03-11T03:37:49.085Z,98930.78
2023-03-11T03:40:17.448Z,98938.66
2023-03-11T03:42:45.074Z,98934.34
2023-03-11T03:45:12.707Z,98940.44
2023-03-11T03:47:40.293Z,98936.03
2023-03-11T03:50:07.921Z,98937.72
2023-03-11T03:52:35.922Z,98941.28
2023-03-11T03:55:03.475Z,98951.75
2023-03-11T03:57:31.410Z,98956.06
2023-03-11T03:59:58.972Z,98960.38
2023-03-11T04:02:26.905Z,98959.53
2023-03-11T04:04:54.933Z,98959.63
2023-03-11T04:07:22.525Z,98962.25
2023-03-11T04:09:50.151Z,98973.69
2023-03-11T04:12:18.420Z,98976.31
2023-03-11T04:14:46.003Z,98968.53
2023-03-11T04:17:14.215Z,98973.03
2023-03-11T04:19:41.836Z,98972.28
2023-03-11T04:22:09.634Z,98980.22
2023-03-11T04:24:37.557Z,98973.28
2023-03-11T04:27:05.172Z,98985.66
2023-03-11T04:29:33.227Z,98989.22
2023-03-11T04:32:00.815Z,98986.66
2023-03-11T04:34:28.454Z,98992.75
2023-03-11T04:36:56.024Z,98995.47
2023-03-11T04:39:23.617Z,98995.47
2023-03-11T04:41:51.634Z,98992.84
2023-03-11T04:44:19.229Z,99003.41
2023-03-11T04:46:48.133Z,99003.41
2023-03-11T04:49:15.780Z,99010.53
2023-03-11T04:51:43.347Z,99010.53
2023-03-11T04:54:11.316Z,99021.09
2023-03-11T04:56:38.939Z,99022.13
2023-03-11T04:59:06.748Z,99026.44
2023-03-11T05:01:34.359Z,99029.97
2023-03-11T05:04:02.004Z,99030.91
2023-03-11T05:06:29.955Z,99033.72
2023-03-11T05:08:59.136Z,99037.28
2023-03-11T05:11:26.746Z,99033.88
2023-03-11T05:13:54.306Z,99043.53
2023-03-11T05:16:21.951Z,99034.91
2023-03-11T05:18:49.977Z,99039.38
2023-03-11T05:21:17.532Z,99043.81
2023-03-11T05:23:45.766Z,99043.03
2023-03-11T05:26:13.482Z,99044.06
2023-03-11T05:28:41.084Z,99046.75
2023-03-11T05:31:08.726Z,99049.66
2023-03-11T05:33:36.399Z,99051.41
2023-03-11T05:36:04.025Z,99058.50
2023-03-11T05:38:31.651Z,99061.13
2023-03-11T05:40:59.369Z,99068.94
2023-03-11T05:43:26.986Z,99066.19
2023-03-11T05:45:54.619Z,99067.88
2023-03-11T05:48:22.233Z,99069.59
2023-03-11T05:50:49.814Z,99066.03
2023-03-11T05:53:17.807Z,99074.66
2023-03-11T05:55:45.484Z,99066.78
2023-03-11T05:58:13.091Z,99089.38
2023-03-11T06:00:40.725Z,99084.13
2023-03-11T06:03:08.332Z,99086.66
2023-03-11T06:05:35.958Z,99090.13
2023-03-11T06:08:03.997Z,99095.28
2023-03-11T06:10:31.656Z,99091.75
2023-03-11T06:12:59.218Z,99097.81
2023-03-11T06:15:27.278Z,99096.97
2023-03-11T06:17:55.044Z,99095.28
2023-03-11T06:20:23.065Z,99096.97
2023-03-11T06:22:50.640Z,99097.72
2023-03-11T06:25:18.280Z,99100.34
2023-03-11T06:27:46.220Z,99101.22
2023-03-11T06:30:13.960Z,99095.97
2023-03-11T06:32:41.971Z,99096.81
2023-03-11T06:35:09.547Z,99107.28
2023-03-11T06:37:38.467Z,99105.44
2023-03-11T06:40:07.604Z,99112.28
2023-03-11T06:42:36.428Z,99113.13
2023-03-11T06:45:04.396Z,99115.75
2023-03-11T06:47:32.043Z,99121.94
2023-03-11T06:49:59.801Z,99124.69
2023-03-11T06:52:27.372Z,99127.44
2023-03-11T06:54:55.012Z,99140.59
2023-03-11T06:57:22.987Z,99130.88
2023-03-11T06:59:51.918Z,99142.03
2023-03-11T07:02:19.641Z,99153.22
2023-03-11T07:04:47.227Z,99154.75
2023-03-11T07:07:14.811Z,99156.94
2023-03-11T07:09:42.770Z,99161.84
2023-03-11T07:12:10.385Z,99165.22
2023-03-11T07:14:38.234Z,99171.25
2023-03-11T07:17:05.879Z,99177.56
2023-03-11T07:19:33.484Z,99171.72
2023-03-11T07:22:01.946Z,99185.03
2023-03-11T07:24:29.657Z,99192.22
2023-03-11T07:26:57.428Z,99195.00
2023-03-11T07:29:25.054Z,99203.88
2023-03-11T07:31:52.765Z,99208.88
2023-03-11T07:34:20.790Z,99202.44
2023-03-11T07:36:48.399Z,99214.22
2023-03-11T07:39:16.325Z,99221.31
2023-03-11T07:41:43.964Z,99222.34
2023-03-11T07:44:11.929Z,99225.88
2023-03-11T07:46:39.900Z,99221.44
2023-03-11T07:49:07.657Z,99226.41
2023-03-11T07:51:35.267Z,99228.63
2023-03-11T07:54:03.094Z,99233.75
2023-03-11T07:56:30.798Z,99226.94
2023-03-11T07:58:58.841Z,99236.16
2023-03-11T08:01:26.610Z,99237.94
2023-03-11T08:03:57.105Z,99246.59
2023-03-11T08:06:25.339Z,99253.91
2023-03-11T08:08:53.095Z,99251.94
2023-03-11T08:11:21.034Z,99249.38
2023-03-11T08:13:48.733Z,99249.50
2023-03-11T08:16:16.590Z,99260.97
2023-03-11T08:18:44.334Z,99262.47
2023-03-11T08:21:12.129Z,99258.44
2023-03-11T08:23:40.111Z,99262.53
2023-03-11T08:26:07.802Z,99261.69
2023-03-11T08:28:35.649Z,99270.88
2023-03-11T08:31:03.531Z,99266.75
2023-03-11T08:33:31.249Z,99277.44
2023-03-11T08:35:59.345Z,99273.47
2023-03-11T08:38:27.358Z,99276.75
2023-03-11T08:40:55.216Z,99274.34
2023-03-11T08:43:22.799Z,99279.47
2023-03-11T08:45:50.821Z,99280.66
2023-03-11T08:48:19.299Z,99284.56
2023-03-11T08:50:53.865Z,99278.94
2023-03-11T08:53:22.329Z,99271.03
2023-03-11T08:55:50.050Z,99273.91
2023-03-11T08:58:17.789Z,99277.59
2023-03-11T09:00:45.798Z,99274.28
2023-03-11T09:03:13.829Z,99271.00
2023-03-11T09:05:41.750Z,99277.25
2023-03-11T09:08:09.506Z,99273.03
2023-03-11T09:10:37.694Z,99267.00
2023-03-11T09:13:05.733Z,99274.06
2023-03-11T09:15:33.522Z,99281.47
2023-03-11T09:18:01.365Z,99281.28
2023-03-11T09:20:29.119Z,99283.19
2023-03-11T09:22:56.789Z,99275.13
2023-03-11T09:25:24.871Z,99288.63
2023-03-11T09:27:52.595Z,99283.81
2023-03-11T09:30:20.508Z,99284.53
2023-03-11T09:32:48.483Z,99287.47
2023-03-11T09:35:16.219Z,99273.84
2023-03-11T09:37:44.362Z,99284.84
2023-03-11T09:40:12.058Z,99283.34
2023-03-11T09:42:39.928Z,99279.72
2023-03-11T09:45:07.732Z,99290.13
2023-03-11T09:47:35.486Z,99294.16
2023-03-11T09:50:05.275Z,99296.19
2023-03-11T09:52:33.259Z,99300.84
2023-03-11T09:55:03.245Z,99306.63
2023-03-11T09:57:30.927Z,99315.78
2023-03-11T09:59:58.699Z,99317.34
2023-03-11T10:02:28.289Z,99315.13
2023-03-11T10:04:56.326Z,99311.41
2023-03-11T10:07:24.608Z,99323.31
2023-03-11T10:09:52.405Z,99318.25
2023-03-11T10:12:20.171Z,99304.31
2023-03-11T10:14:48.607Z,99305.84
2023-03-11T10:17:16.836Z,99292.59
2023-03-11T10:19:44.913Z,99296.22
2023-03-11T10:22:13.863Z,99306.84
2023-03-11T10:24:41.553Z,99313.72
2023-03-11T10:27:09.648Z,99312.00
2023-03-11T10:29:37.429Z,99312.56
2023-03-11T10:32:05.453Z,99299.50
2023-03-11T10:34:33.567Z,99301.00
2023-03-11T10:37:02.298Z,99296.00
2023-03-11T10:39:30.404Z,99290.09
2023-03-11T10:41:58.175Z,99294.44
2023-03-11T10:44:25.925Z,99282.78
2023-03-11T10:46:53.623Z,99283.53
2023-03-11T10:49:21.312Z,99282.34
2023-03-11T10:51:49.760Z,99278.72
2023-03-11T10:54:17.606Z,99282.53
2023-03-11T10:56:45.599Z,99290.00
2023-03-11T10:59:13.616Z,99288.16
2023-03-11T11:01:41.353Z,99303.59
2023-03-11T11:04:09.225Z,99310.38
2023-03-11T11:06:37.125Z,99314.63
2023-03-11T11:09:05.090Z,99305.31
2023-03-11T11:11:33.009Z,99329.53
2023-03-11T11:14:01.088Z,99340.72
2023-03-11T11:16:29.153Z,99346.59
2023-03-11T11:18:57.133Z,99353.72
2023-03-11T11:21:24.984Z,99339.78
2023-03-11T11:23:54.026Z,99326.19
2023-03-11T11:26:22.016Z,99324.94
2023-03-11T11:28:50.222Z,99317.78
2023-03-11T11:31:18.032Z,99318.78
2023-03-11T11:33:45.788Z,99331.84
2023-03-11T11:36:13.828Z,99327.50
2023-03-11T11:38:41.513Z,99338.03
2023-03-11T11:41:09.452Z,99322.63
2023-03-11T11:43:37.990Z,99320.66
2023-03-11T11:46:07.356Z,99303.25
2023-03-11T11:48:35.262Z,99301.91
2023-03-11T11:51:03.365Z,99295.44
2023-03-11T11:53:31.562Z,99296.94
2023-03-11T11:55:59.352Z,99293.38
2023-03-11T11:58:27.454Z,99290.50
2023-03-11T12:00:55.435Z,99294.59
2023-03-11T12:03:23.960Z,99291.09
2023-03-11T12:05:52.386Z,99291.09
2023-03-11T12:08:22.447Z,99289.72
2023-03-11T12:10:50.388Z,99290.06
2023-03-11T12:13:18.334Z,99293.47
2023-03-11T12:15:46.138Z,99295.31
2023-03-11T12:18:14.483Z,99294.88
2023-03-11T12:20:42.532Z,99290.13
2023-03-11T12:23:10.356Z,99295.63
2023-03-11T12:25:38.143Z,99290.56
2023-03-11T12:28:09.607Z,99296.50
2023-03-11T12:30:38.916Z,99306.03
2023-03-11T12:33:06.970Z,99303.81
2023-03-11T12:35:35.827Z,99310.94
2023-03-11T12:38:03.664Z,99310.41
2023-03-11T12:40:31.554Z,99315.72
2023-03-11T12:43:02.455Z,99314.19
2023-03-11T12:45:30.287Z,99324.13
2023-03-11T12:47:58.218Z,99324.31
2023-03-11T12:50:26.341Z,99332.59
2023-03-11T12:52:54.680Z,99335.88
2023-03-11T12:55:22.560Z,99338.03
2023-03-11T12:57:50.456Z,99336.94
2023-03-11T13:00:19.319Z,99335.97
2023-03-11T13:02:47.820Z,99337.50
2023-03-11T13:05:15.993Z,99339.81
2023-03-11T13:07:44.892Z,99339.34
2023-03-11T13:10:12.738Z,99341.94
2023-03-11T13:12:40.919Z,99340.59
2023-03-11T13:15:09.272Z,99346.16
2023-03-11T13:17:44.334Z,99349.56
2023-03-11T13:20:16.730Z,99351.13
2023-03-11T13:22:44.768Z,99345.56
2023-03-11T13:25:12.518Z,99341.56
2023-03-11T13:27:40.537Z,99341.19
2023-03-11T13:30:10.525Z,99347.19
2023-03-11T13:32:38.787Z,99341.31
2023-03-11T13:35:07.074Z,99344.81
2023-03-11T13:37:34.949Z,99331.09
2023-03-11T13:40:02.766Z,99329.50
2023-03-11T13:42:30.777Z,99328.78
2023-03-11T13:44:58.890Z,99332.53
2023-03-11T13:47:27.011Z,99334.19
2023-03-11T13:49:55.096Z,99328.59
2023-03-11T13:52:22.866Z,99343.84
2023-03-11T13:54:50.766Z,99334.25
2023-03-11T13:57:19.235Z,99338.84
2023-03-11T13:59:47.251Z,99334.72
2023-03-11T14:02:15.067Z,99330.53
2023-03-11T14:04:43.025Z,99329.44
2023-03-11T14:07:11.025Z,99323.81
2023-03-11T14:09:39.763Z,99317.56
2023-03-11T14:12:08.172Z,99317.25
2023-03-11T14:14:35.982Z,99309.88
2023-03-11T14:17:04.346Z,99324.91
2023-03-11T14:19:32.918Z,99324.69
2023-03-11T14:22:01.076Z,99321.06
2023-03-11T14:24:28.940Z,99324.25
2023-03-11T14:26:57.033Z,99328.78
2023-03-11T14:29:24.933Z,99327.44
2023-03-11T14:31:52.874Z,99322.56
2023-03-11T14:34:21.330Z,99328.88
2023-03-11T14:36:51.193Z,99321.88
2023-03-11T14:39:19.089Z,99326.38
2023-03-11T14:41:47.448Z,99327.50
2023-03-11T14:44:15.348Z,99334.50
2023-03-11T14:46:45.265Z,99338.06
2023-03-11T14:49:13.445Z,99350.25
2023-03-11T14:51:41.370Z,99352.19
2023-03-11T14:54:09.376Z,99354.44
2023-03-11T14:56:37.492Z,99362.53
2023-03-11T14:59:08.520Z,99357.75
2023-03-11T15:01:38.938Z,99362.53
2023-03-11T15:04:07.329Z,99364.66
2023-03-11T15:06:35.259Z,99356.47
2023-03-11T15:09:03.335Z,99355.63
2023-03-11T15:11:33.284Z,99360.84
2023-03-11T15:14:01.406Z,99359.13
2023-03-11T15:16:29.588Z,99345.63
2023-03-11T15:18:57.411Z,99352.03
2023-03-11T15:21:25.234Z,99359.78
2023-03-11T15:23:53.658Z,99354.03
2023-03-11T15:26:22.809Z,99351.34
2023-03-11T15:28:50.717Z,99350.66
2023-03-11T15:31:18.795Z,99354.16
2023-03-11T15:33:46.699Z,99358.09
2023-03-11T15:36:14.641Z,99351.34
2023-03-11T15:38:43.310Z,99350.50
2023-03-11T15:41:11.432Z,99357.94
2023-03-11T15:43:40.537Z,99360.75
2023-03-11T15:46:08.601Z,99359.34
2023-03-11T15:48:37.439Z,99361.59
2023-03-11T15:51:05.711Z,99358.88
2023-03-11T15:53:33.807Z,99368.84
2023-03-11T15:56:07.374Z,99359.09
2023-03-11T15:58:35.930Z,99375.41
2023-03-11T16:01:04.654Z,99371.69
2023-03-11T16:03:32.795Z,99374.91
2023-03-11T16:06:00.851Z,99376.69
2023-03-11T16:08:28.625Z,99383.75
2023-03-11T16:10:58.258Z,99387.06
2023-03-11T16:13:26.580Z,99387.41
2023-03-11T16:15:54.764Z,99396.25
2023-03-11T16:18:22.606Z,99400.22
2023-03-11T16:20:50.552Z,99397.03
2023-03-11T16:23:18.398Z,99400.66
2023-03-11T16:25:46.524Z,99394.72
2023-03-11T16:28:14.657Z,99396.47
2023-03-11T16:30:42.474Z,99399.03
2023-03-11T16:33:10.758Z,99398.97
2023-03-11T16:35:38.890Z,99387.38
2023-03-11T16:38:07.456Z,99396.06
2023-03-11T16:40:35.318Z,99395.00
2023-03-11T16:43:03.318Z,99402.66
2023-03-11T16:45:31.220Z,99408.59
2023-03-11T16:47:59.026Z,99401.31
2023-03-11T16:50:27.714Z,99412.53
2023-03-11T16:52:55.770Z,99416.63
2023-03-11T16:55:24.061Z,99415.41
2023-03-11T16:57:52.087Z,99421.25
2023-03-11T17:00:19.998Z,99421.97
2023-03-11T17:02:48.226Z,99419.09
2023-03-11T17:05:16.758Z,99419.72
2023-03-11T17:07:44.656Z,99420.34
2023-03-11T17:10:12.597Z,99417.44
2023-03-11T17:12:40.573Z,99426.84
2023-03-11T17:15:09.021Z,99428.28
2023-03-11T17:17:38.653Z,99424.34
2023-03-11T17:20:07.855Z,99427.59
2023-03-11T17:22:35.868Z,99424.69
2023-03-11T17:25:03.938Z,99426.03
2023-03-11T17:27:33.379Z,99430.09
2023-03-11T17:30:01.671Z,99437.66
2023-03-11T17:32:29.566Z,99436.47
2023-03-11T17:34:57.805Z,99444.16
2023-03-11T17:37:25.610Z,99442.13
2023-03-11T17:39:54.196Z,99449.66
2023-03-11T17:42:22.311Z,99454.47
2023-03-11T17:44:52.094Z,99456.50
2023-03-11T17:47:20.721Z,99455.00
2023-03-11T17:49:48.719Z,99459.81
2023-03-11T17:52:16.556Z,99455.75
2023-03-11T17:54:44.639Z,99455.19
2023-03-11T17:57:12.811Z,99462.53
2023-03-11T17:59:40.675Z,99465.41
2023-03-11T18:02:08.628Z,99462.50
2023-03-11T18:04:39.647Z,99477.13
2023-03-11T18:07:08.549Z,99470.72
2023-03-11T18:09:36.401Z,99474.81
2023-03-11T18:12:04.539Z,99466.69
2023-03-11T18:14:32.595Z,99475.97
2023-03-11T18:17:01.110Z,99480.84
2023-03-11T18:19:29.173Z,99474.31
2023-03-11T18:21:56.961Z,99473.69
2023-03-11T18:24:25.236Z,99471.53
2023-03-11T18:26:53.197Z,99472.88
2023-03-11T18:29:21.460Z,99482.22
2023-03-11T18:31:49.438Z,99478.22
2023-03-11T18:34:17.655Z,99477.78
2023-03-11T18:36:45.535Z,99486.00
2023-03-11T18:39:14.079Z,99481.75
2023-03-11T18:41:43.347Z,99480.31
2023-03-11T18:44:11.631Z,99480.31
2023-03-11T18:46:41.697Z,99478.63
2023-03-11T18:49:09.690Z,99483.88
2023-03-11T18:51:37.607Z,99484.03
2023-03-11T18:54:07.571Z,99491.31
2023-03-11T18:56:35.572Z,99488.09
2023-03-11T18:59:03.291Z,99484.72
2023-03-11T19:01:31.346Z,99479.59
2023-03-11T19:03:59.364Z,99496.47
2023-03-11T19:06:27.187Z,99496.72
2023-03-11T19:08:58.056Z,99502.28
2023-03-11T19:11:26.148Z,99501.59
2023-03-11T19:13:54.226Z,99506.91
2023-03-11T19:16:22.201Z,99506.22
2023-03-11T19:18:50.892Z,99508.16
2023-03-11T19:21:19.420Z,99504.78
2023-03-11T19:23:47.315Z,99502.22
2023-03-11T19:26:15.301Z,99502.38
2023-03-11T19:28:43.499Z,99500.75
2023-03-11T19:31:11.741Z,99500.06
2023-03-11T19:33:40.039Z,99499.31
2023-03-11T19:36:08.070Z,99504.63
2023-03-11T19:38:36.043Z,99508.25
2023-03-11T19:41:04.039Z,99507.56
2023-03-11T19:43:32.181Z,99511.28
2023-03-11T19:46:00.383Z,99513.22
2023-03-11T19:48:28.483Z,99515.91
2023-03-11T19:50:56.471Z,99516.06
2023-03-11T19:53:24.855Z,99520.63
2023-03-11T19:55:53.049Z,99515.38
2023-03-11T19:58:21.087Z,99510.06
2023-03-11T20:00:49.094Z,99520.63
2023-03-11T20:03:17.229Z,99513.69
2023-03-11T20:05:45.070Z,99518.22
2023-03-11T20:08:13.394Z,99520.09
2023-03-11T20:10:41.601Z,99524.47
2023-03-11T20:13:09.514Z,99517.59
2023-03-11T20:15:37.742Z,99518.59
2023-03-11T20:18:06.560Z,99518.59
2023-03-11T20:20:34.742Z,99523.06
2023-03-11T20:23:02.879Z,99515.38
2023-03-11T20:25:32.655Z,99518.13
2023-03-11T20:28:00.560Z,99520.75
2023-03-11T20:30:28.511Z,99518.06
2023-03-11T20:32:56.984Z,99517.06
2023-03-11T20:35:25.227Z,99519.53
2023-03-11T20:37:53.600Z,99518.47
2023-03-11T20:40:21.601Z,99526.09
2023-03-11T20:42:49.958Z,99506.63
2023-03-11T20:45:18.435Z,99514.28
2023-03-11T20:47:46.566Z,99516.75
2023-03-11T20:50:14.482Z,99515.66
2023-03-11T20:52:42.350Z,99513.66
2023-03-11T20:55:10.498Z,99522.31
2023-03-11T20:57:38.922Z,99516.13
2023-03-11T21:00:11.263Z,99524.84
2023-03-11T21:02:39.416Z,99523.16
2023-03-11T21:05:07.746Z,99525.84
2023-03-11T21:07:35.555Z,99532.91
2023-03-11T21:10:03.726Z,99526.97
2023-03-11T21:12:32.093Z,99533.13
2023-03-11T21:14:59.736Z,99523.72
2023-03-11T21:17:27.696Z,99530.00
2023-03-11T21:19:55.638Z,99534.66
2023-03-11T21:22:24.213Z,99528.78
2023-03-11T21:24:52.932Z,99527.16
2023-03-11T21:27:26.482Z,99530.03
2023-03-11T21:29:54.730Z,99530.19
2023-03-11T21:32:22.814Z,99531.19
2023-03-11T21:34:51.114Z,99533.97
2023-03-11T21:37:19.334Z,99536.78
2023-03-11T21:39:47.186Z,99527.44
2023-03-11T21:42:15.856Z,99526.91
2023-03-11T21:44:44.072Z,99522.72
2023-03-11T21:47:12.490Z,99521.19
2023-03-11T21:49:40.536Z,99523.13
2023-03-11T21:52:08.516Z,99525.09
2023-03-11T21:54:36.328Z,99519.25
2023-03-11T21:57:04.178Z,99522.00
2023-03-11T21:59:32.702Z,99514.50
2023-03-11T22:02:03.500Z,99518.19
2023-03-11T22:04:31.686Z,99519.28
2023-03-11T22:07:00.142Z,99522.00
2023-03-11T22:09:28.098Z,99515.06
2023-03-11T22:11:56.743Z,99518.63
2023-03-11T22:14:24.808Z,99520.47
2023-03-11T22:16:52.825Z,99516.06
2023-03-11T22:19:20.575Z,99515.25
2023-03-11T22:21:48.988Z,99522.28
2023-03-11T22:24:17.190Z,99522.28
2023-03-11T22:26:45.067Z,99518.84
2023-03-11T22:29:13.745Z,99526.75
2023-03-11T22:31:41.795Z,99526.00
2023-03-11T22:34:09.596Z,99519.84
2023-03-11T22:36:37.830Z,99518.13
2023-03-11T22:39:05.998Z,99523.38
2023-03-11T22:41:33.868Z,99526.81
2023-03-11T22:44:01.775Z,99532.94
2023-03-11T22:46:29.605Z,99532.94
2023-03-11T22:48:58.248Z,99523.31
2023-03-11T22:51:26.132Z,99543.41
2023-03-11T22:53:53.850Z,99550.34
2023-03-11T22:56:21.586Z,99537.31
2023-03-11T22:58:49.425Z,99537.31
2023-03-11T23:01:17.998Z,99541.56
2023-03-11T23:03:49.033Z,99538.00
2023-03-11T23:06:16.792Z,99543.13
2023-03-11T23:08:44.466Z,99536.81
2023-03-11T23:11:12.502Z,99531.44
2023-03-11T23:13:40.330Z,99533.91
2023-03-11T23:16:09.224Z,99539.78
2023-03-11T23:18:36.889Z,99537.06
2023-03-11T23:21:04.632Z,99534.31
2023-03-11T23:23:32.301Z,99531.53
2023-03-11T23:26:00.819Z,99539.28
2023-03-11T23:28:28.735Z,99533.03
2023-03-11T23:30:56.570Z,99528.59
2023-03-11T23:33:24.631Z,99531.09
2023-03-11T23:35:52.398Z,99536.28
2023-03-11T23:38:20.408Z,99533.59
2023-03-11T23:40:48.060Z,99523.06
2023-03-11T23:43:15.690Z,99531.69
2023-03-11T23:45:43.377Z,99525.50
2023-03-11T23:48:11.003Z,99526.28
2023-03-11T23:50:39.034Z,99523.59
2023-03-11T23:53:07.098Z,99524.34
2023-03-11T23:55:35.127Z,99526.91
2023-03-11T23:58:02.872Z,99525.06
